Time;durP1;ratioP1;P1;durP2;ratioP2;P2;SDS_P1;SDS_P2;PMS_P1;PMS_P2;Temp;Humidity;BMP_temperature;BMP_pressure;BME280_temperature;BME280_humidity;BME280_pressure;Samples;Min_cycle;Max_cycle;Signal;HPM_P1;HPM_P2
2023/04/06 00:01:35;;;;;;;8.03;4.60;;;2.60;99.90;;;;;;5052246;28;20172;-74
2023/04/06 00:04:01;;;;;;;6.93;5.00;;;2.60;99.90;;;;;;5050992;28;20429;-74
2023/04/06 00:06:26;;;;;;;8.23;5.73;;;2.50;99.90;;;;;;5052574;28;20524;-74
2023/04/06 00:08:52;;;;;;;10.17;5.03;;;2.50;99.90;;;;;;5051948;28;20225;-74
2023/04/06 00:11:18;;;;;;;12.57;6.97;;;2.40;99.90;;;;;;5052032;28;20174;-74
2023/04/06 00:13:43;;;;;;;12.50;6.90;;;2.40;99.90;;;;;;5051811;28;20343;-74
2023/04/06 00:16:09;;;;;;;11.50;6.83;;;2.20;99.90;;;;;;5052046;28;20163;-74
2023/04/06 00:18:34;;;;;;;8.13;6.00;;;2.20;99.90;;;;;;5052099;28;20166;-74
2023/04/06 00:21:00;;;;;;;10.03;6.50;;;2.20;99.90;;;;;;5051872;28;20177;-74
2023/04/06 00:23:25;;;;;;;23.70;7.20;;;2.20;99.90;;;;;;5050616;28;20202;-74
2023/04/06 00:25:51;;;;;;;10.50;6.60;;;2.20;99.90;;;;;;5050825;28;20217;-74
2023/04/06 00:28:17;;;;;;;15.20;6.83;;;2.10;99.90;;;;;;5053195;28;20171;-74
2023/04/06 00:30:42;;;;;;;12.57;6.50;;;2.10;99.90;;;;;;5055928;28;20543;-74
2023/04/06 00:33:08;;;;;;;10.07;6.73;;;2.10;99.90;;;;;;5056209;28;20194;-74
2023/04/06 00:35:34;;;;;;;13.50;7.30;;;2.10;99.90;;;;;;5055143;28;20165;-74
2023/04/06 00:38:00;;;;;;;12.67;6.37;;;2.00;99.90;;;;;;5055005;28;20163;-74
2023/04/06 00:40:28;;;;;;;9.57;6.03;;;2.10;99.90;;;;;;5055051;28;20937;-74
2023/04/06 00:42:54;;;;;;;10.47;6.57;;;2.20;99.90;;;;;;5054932;28;20178;-74
2023/04/06 00:45:19;;;;;;;12.53;6.37;;;2.20;99.90;;;;;;5055831;28;20396;-74
2023/04/06 00:47:45;;;;;;;10.43;7.37;;;2.20;99.90;;;;;;5055435;28;20546;-74
2023/04/06 00:50:11;;;;;;;10.17;5.63;;;2.30;99.90;;;;;;5055387;28;20221;-74
2023/04/06 00:52:36;;;;;;;11.37;6.17;;;2.30;99.90;;;;;;5054543;28;20201;-74
2023/04/06 00:55:03;;;;;;;9.60;5.60;;;2.30;99.90;;;;;;5054216;28;20194;-74
2023/04/06 00:57:28;;;;;;;16.10;5.50;;;2.40;99.90;;;;;;5055104;28;20559;-74
2023/04/06 00:59:54;;;;;;;7.57;5.53;;;2.40;99.90;;;;;;5055413;28;20398;-74
2023/04/06 01:02:20;;;;;;;8.10;5.83;;;2.40;99.90;;;;;;5055416;28;20206;-74
2023/04/06 01:04:45;;;;;;;10.17;5.90;;;2.40;99.90;;;;;;5055508;28;20232;-74
2023/04/06 01:07:11;;;;;;;8.00;5.20;;;2.40;99.90;;;;;;5054090;28;20673;-74
2023/04/06 01:09:37;;;;;;;7.67;5.20;;;2.40;99.90;;;;;;5055501;28;20178;-74
2023/04/06 01:12:03;;;;;;;10.20;5.73;;;2.40;99.90;;;;;;5055347;28;20678;-74
2023/04/06 01:14:29;;;;;;;6.57;5.00;;;2.40;99.90;;;;;;5054862;28;20211;-74
2023/04/06 01:17:00;;;;;;;10.37;5.87;;;2.40;99.90;;;;;;5054833;28;20561;-74
2023/04/06 01:19:26;;;;;;;10.10;5.60;;;2.30;99.90;;;;;;5053894;28;20983;-74
2023/04/06 01:21:53;;;;;;;14.33;6.43;;;2.20;99.90;;;;;;5053950;28;20409;-74
2023/04/06 01:24:19;;;;;;;15.93;7.67;;;2.00;99.90;;;;;;5054986;28;20186;-74
2023/04/06 01:26:44;;;;;;;9.33;6.40;;;2.00;99.90;;;;;;5054349;28;20437;-74
2023/04/06 01:29:10;;;;;;;11.30;6.80;;;1.90;99.90;;;;;;5053377;28;20421;-74
2023/04/06 01:31:36;;;;;;;9.77;5.57;;;1.90;99.90;;;;;;5054802;28;20405;-74
2023/04/06 01:34:01;;;;;;;9.77;6.10;;;1.90;99.90;;;;;;5053475;28;20193;-74
2023/04/06 01:36:27;;;;;;;11.83;6.17;;;1.90;99.90;;;;;;5054583;28;20632;-74
2023/04/06 01:38:52;;;;;;;11.53;5.50;;;1.90;99.90;;;;;;5052937;28;20178;-74
2023/04/06 01:41:18;;;;;;;15.23;6.17;;;1.90;99.90;;;;;;5054633;28;20249;-74
2023/04/06 01:43:45;;;;;;;21.20;8.80;;;1.90;99.90;;;;;;5053437;28;20217;-74
2023/04/06 01:46:10;;;;;;;12.30;7.70;;;1.90;99.90;;;;;;5054504;28;20408;-74
2023/04/06 01:48:36;;;;;;;10.10;5.97;;;1.90;99.90;;;;;;5052681;28;20428;-74
2023/04/06 01:51:02;;;;;;;9.97;7.10;;;1.90;99.90;;;;;;5054588;28;20177;-74
2023/04/06 01:53:27;;;;;;;8.17;4.90;;;1.90;99.90;;;;;;5054332;28;20202;-74
2023/04/06 01:55:53;;;;;;;11.67;7.27;;;1.90;99.90;;;;;;5054437;28;20175;-74
2023/04/06 01:58:18;;;;;;;8.70;5.57;;;1.90;99.90;;;;;;5053982;28;20182;-74
2023/04/06 02:00:44;;;;;;;7.37;5.37;;;1.80;99.90;;;;;;5054188;28;20158;-75
2023/04/06 02:03:09;;;;;;;11.50;8.10;;;1.80;99.90;;;;;;5054027;28;20166;-74
2023/04/06 02:05:38;;;;;;;9.33;5.60;;;1.70;99.90;;;;;;5054187;28;20666;-74
2023/04/06 02:08:07;;;;;;;17.00;6.47;;;1.60;99.90;;;;;;5052626;28;20257;-74
2023/04/06 02:10:34;;;;;;;10.97;5.80;;;1.60;99.90;;;;;;5054092;28;20503;-74
2023/04/06 02:13:00;;;;;;;9.70;5.73;;;1.50;99.90;;;;;;5053616;28;20460;-74
2023/04/06 02:15:26;;;;;;;9.10;5.13;;;1.50;99.90;;;;;;5053792;28;20408;-74
2023/04/06 02:17:51;;;;;;;9.63;6.20;;;1.50;99.90;;;;;;5053528;28;20171;-74
2023/04/06 02:20:17;;;;;;;10.53;5.90;;;1.50;99.90;;;;;;5052552;28;20413;-74
2023/04/06 02:22:43;;;;;;;11.03;5.20;;;1.50;99.90;;;;;;5053692;28;20661;-74
2023/04/06 02:25:09;;;;;;;8.00;5.30;;;1.50;99.90;;;;;;5053705;28;20547;-74
2023/04/06 02:27:35;;;;;;;8.53;5.87;;;1.40;99.90;;;;;;5053380;28;20648;-74
2023/04/06 02:30:02;;;;;;;6.63;4.50;;;1.40;99.90;;;;;;5053711;28;20766;-74
2023/04/06 02:32:27;;;;;;;8.00;4.60;;;1.40;99.90;;;;;;5053496;28;20471;-74
2023/04/06 02:34:53;;;;;;;16.80;7.73;;;1.30;99.90;;;;;;5053446;28;20437;-74
2023/04/06 02:37:19;;;;;;;16.10;7.07;;;1.30;99.90;;;;;;5053437;28;20169;-74
2023/04/06 02:39:45;;;;;;;7.93;5.27;;;1.20;99.90;;;;;;5053276;28;20157;-72
2023/04/06 02:42:10;;;;;;;9.80;6.30;;;1.30;99.90;;;;;;5051943;28;20169;-73
2023/04/06 02:44:36;;;;;;;8.70;5.10;;;1.20;99.90;;;;;;5052962;28;20425;-74
2023/04/06 02:47:02;;;;;;;12.57;5.00;;;1.20;99.90;;;;;;5052774;28;20260;-72
2023/04/06 02:49:27;;;;;;;10.07;5.30;;;1.20;99.90;;;;;;5052948;28;20632;-74
2023/04/06 02:51:53;;;;;;;8.53;5.83;;;1.20;99.90;;;;;;5052623;28;20182;-73
2023/04/06 02:54:18;;;;;;;6.07;5.23;;;1.10;99.90;;;;;;5052992;28;20175;-72
2023/04/06 02:56:44;;;;;;;11.13;5.33;;;1.10;99.90;;;;;;5052988;28;20628;-74
2023/04/06 02:59:10;;;;;;;7.57;5.97;;;1.20;99.90;;;;;;5051894;28;20206;-73
2023/04/06 03:01:36;;;;;;;4.87;4.23;;;1.20;99.90;;;;;;5052872;28;20166;-74
2023/04/06 03:04:01;;;;;;;7.57;5.80;;;1.20;99.90;;;;;;5052855;28;20750;-72
2023/04/06 03:06:27;;;;;;;9.70;5.50;;;1.20;99.90;;;;;;5053006;28;20171;-74
2023/04/06 03:08:53;;;;;;;8.70;5.93;;;1.20;99.90;;;;;;5052458;28;20430;-72
2023/04/06 03:11:19;;;;;;;11.90;5.90;;;1.20;99.90;;;;;;5051533;28;20178;-71
2023/04/06 03:13:44;;;;;;;7.67;5.30;;;1.10;99.90;;;;;;5052134;28;20500;-74
2023/04/06 03:16:10;;;;;;;10.27;5.80;;;1.10;99.90;;;;;;5052016;28;20261;-74
2023/04/06 03:18:36;;;;;;;7.20;5.13;;;1.10;99.90;;;;;;5050469;28;20516;-72
2023/04/06 03:21:01;;;;;;;8.67;4.93;;;1.10;99.90;;;;;;5052074;28;20170;-73
2023/04/06 03:23:27;;;;;;;10.63;5.73;;;1.00;99.90;;;;;;5051705;28;20184;-72
2023/04/06 03:25:52;;;;;;;13.10;6.70;;;1.00;99.90;;;;;;5051805;28;20229;-74
2023/04/06 03:28:18;;;;;;;11.30;5.73;;;1.00;99.90;;;;;;5051441;28;20178;-72
2023/04/06 03:30:44;;;;;;;17.33;6.17;;;1.00;99.90;;;;;;5051294;28;20539;-72
2023/04/06 03:33:10;;;;;;;7.63;5.17;;;1.00;99.90;;;;;;5049885;28;20340;-72
2023/04/06 03:35:36;;;;;;;7.57;5.07;;;1.00;99.90;;;;;;5051415;28;20484;-74
2023/04/06 03:38:02;;;;;;;9.20;5.70;;;1.00;99.90;;;;;;5051244;28;20193;-73
2023/04/06 03:40:28;;;;;;;8.60;5.57;;;1.00;99.90;;;;;;5050220;28;20437;-73
2023/04/06 03:42:53;;;;;;;9.63;5.77;;;1.00;99.90;;;;;;5051219;28;20566;-72
2023/04/06 03:45:19;;;;;;;8.33;4.90;;;1.00;99.90;;;;;;5050045;28;20269;-72
2023/04/06 03:47:44;;;;;;;7.47;4.67;;;0.90;99.90;;;;;;5050965;28;20167;-73
2023/04/06 03:50:10;;;;;;;10.37;6.27;;;0.90;99.90;;;;;;5051190;28;20168;-72
2023/04/06 03:52:36;;;;;;;9.50;5.90;;;0.90;99.90;;;;;;5051456;28;20212;-74
2023/04/06 03:55:02;;;;;;;8.20;5.70;;;0.90;99.90;;;;;;5051263;28;20187;-74
2023/04/06 03:57:27;;;;;;;9.03;4.93;;;0.90;99.90;;;;;;5049728;28;20163;-73
2023/04/06 03:59:53;;;;;;;9.23;5.43;;;0.90;99.90;;;;;;5051046;28;20177;-72
2023/04/06 04:02:18;;;;;;;7.93;5.70;;;0.90;99.90;;;;;;5049783;28;20176;-72
2023/04/06 04:04:44;;;;;;;10.53;5.63;;;0.80;99.90;;;;;;5051197;28;20518;-74
2023/04/06 04:07:09;;;;;;;10.53;4.90;;;0.90;99.90;;;;;;5050702;28;20706;-72
2023/04/06 04:09:36;;;;;;;9.47;5.33;;;0.90;99.90;;;;;;5051336;28;20176;-74
2023/04/06 04:12:01;;;;;;;8.30;4.13;;;0.80;99.90;;;;;;5051008;28;20183;-74
2023/04/06 04:14:27;;;;;;;11.33;5.47;;;0.80;99.90;;;;;;5013230;28;1100930;-72
2023/04/06 04:16:52;;;;;;;7.13;5.57;;;0.80;99.90;;;;;;5051482;28;20171;-72
2023/04/06 04:19:18;;;;;;;10.00;6.07;;;0.80;99.90;;;;;;5050540;28;20693;-72
2023/04/06 04:21:45;;;;;;;18.00;5.23;;;0.80;99.90;;;;;;5051629;28;20591;-72
2023/04/06 04:24:11;;;;;;;10.13;5.83;;;0.70;99.90;;;;;;5051612;28;20289;-73
2023/04/06 04:26:38;;;;;;;10.33;6.70;;;0.60;99.90;;;;;;5051557;28;20970;-73
2023/04/06 04:29:04;;;;;;;9.80;6.07;;;0.60;99.90;;;;;;5051368;28;20175;-74
2023/04/06 04:31:29;;;;;;;7.80;5.10;;;0.60;99.90;;;;;;5051931;28;20781;-72
2023/04/06 04:33:55;;;;;;;13.40;5.50;;;0.60;99.90;;;;;;5051559;28;20206;-72
2023/04/06 04:36:20;;;;;;;15.70;6.47;;;0.60;99.90;;;;;;5051991;28;20168;-72
2023/04/06 04:38:46;;;;;;;5.70;5.10;;;0.60;99.90;;;;;;5051600;28;20220;-72
2023/04/06 04:41:12;;;;;;;9.17;5.53;;;0.60;99.90;;;;;;5051507;28;20642;-72
2023/04/06 04:43:38;;;;;;;7.47;5.00;;;0.60;99.90;;;;;;5051456;28;20197;-71
2023/04/06 04:46:04;;;;;;;8.67;5.40;;;0.60;99.90;;;;;;5051409;28;20645;-71
2023/04/06 04:48:30;;;;;;;11.73;7.53;;;0.50;99.90;;;;;;5051045;28;20777;-71
2023/04/06 04:50:55;;;;;;;10.13;5.83;;;0.50;99.90;;;;;;5051439;28;20496;-71
2023/04/06 04:53:21;;;;;;;11.07;5.90;;;0.50;99.90;;;;;;5051218;28;20206;-71
2023/04/06 04:55:47;;;;;;;8.83;6.27;;;0.50;99.90;;;;;;5050409;28;20173;-72
2023/04/06 04:58:16;;;;;;;12.40;6.43;;;0.50;99.90;;;;;;5051013;28;20173;-73
2023/04/06 05:00:44;;;;;;;10.00;6.23;;;0.60;99.90;;;;;;5050149;28;20235;-72
2023/04/06 05:03:18;;;;;;;12.77;6.50;;;0.60;99.90;;;;;;5051208;28;20417;-71
2023/04/06 05:05:44;;;;;;;7.90;5.23;;;0.60;99.90;;;;;;5051457;28;20437;-72
2023/04/06 05:08:09;;;;;;;10.77;6.67;;;0.60;99.90;;;;;;5051052;28;20448;-72
2023/04/06 05:10:35;;;;;;;9.80;6.53;;;0.60;99.90;;;;;;5050327;28;20224;-72
2023/04/06 05:13:01;;;;;;;10.37;6.87;;;0.70;99.90;;;;;;5052089;28;20199;-71
2023/04/06 05:15:26;;;;;;;9.60;5.83;;;0.70;99.90;;;;;;5054961;28;20173;-71
2023/04/06 05:17:52;;;;;;;7.20;5.23;;;0.70;99.90;;;;;;5054473;28;20666;-71
2023/04/06 05:20:17;;;;;;;10.70;5.60;;;0.80;99.90;;;;;;5054804;28;20177;-71
2023/04/06 05:22:43;;;;;;;12.30;6.40;;;0.90;99.90;;;;;;5055071;28;20224;-71
2023/04/06 05:25:09;;;;;;;13.30;7.40;;;0.90;99.90;;;;;;5054639;28;20557;-73
2023/04/06 05:27:34;;;;;;;12.50;7.50;;;1.00;99.90;;;;;;5053107;28;20524;-71
2023/04/06 05:30:00;;;;;;;9.30;6.13;;;1.10;99.90;;;;;;5054600;28;20186;-74
2023/04/06 05:32:26;;;;;;;8.83;6.40;;;1.30;99.90;;;;;;5054473;28;20195;-71
2023/04/06 05:34:52;;;;;;;10.27;6.67;;;1.40;99.90;;;;;;5054279;28;20190;-71
2023/04/06 05:37:18;;;;;;;9.47;7.60;;;1.70;99.90;;;;;;5054539;28;20401;-74
2023/04/06 05:39:43;;;;;;;12.70;7.57;;;2.10;99.90;;;;;;5054416;28;20241;-72
2023/04/06 05:42:09;;;;;;;12.10;7.50;;;2.40;99.90;;;;;;5054216;28;20250;-73
2023/04/06 05:44:37;;;;;;;12.03;7.67;;;2.90;99.90;;;;;;5054229;28;20689;-72
2023/04/06 05:47:02;;;;;;;15.57;7.13;;;3.30;99.90;;;;;;5052762;28;20833;-71
2023/04/06 05:49:28;;;;;;;15.47;8.60;;;3.60;99.90;;;;;;5054576;28;20405;-74
2023/04/06 05:51:53;;;;;;;19.60;8.20;;;3.80;99.90;;;;;;5054193;28;20281;-72
2023/04/06 05:54:19;;;;;;;15.20;8.03;;;4.10;99.90;;;;;;5054092;28;20252;-73
2023/04/06 05:56:45;;;;;;;12.47;8.13;;;4.40;99.90;;;;;;5054346;28;20246;-73
2023/04/06 05:59:10;;;;;;;12.47;7.60;;;4.70;99.90;;;;;;5053863;28;20413;-73
2023/04/06 06:01:36;;;;;;;23.43;8.57;;;5.00;99.90;;;;;;5054488;28;20159;-73
2023/04/06 06:04:02;;;;;;;13.70;7.40;;;5.30;99.90;;;;;;5054121;28;20569;-74
2023/04/06 06:06:29;;;;;;;12.27;8.20;;;5.80;99.90;;;;;;5054476;28;20175;-71
2023/04/06 06:08:58;;;;;;;9.40;6.10;;;6.20;99.90;;;;;;5053797;28;20462;-72
2023/04/06 06:11:24;;;;;;;7.67;6.30;;;6.40;99.90;;;;;;5053882;28;20433;-72
2023/04/06 06:13:50;;;;;;;13.40;7.80;;;6.80;99.90;;;;;;5054111;28;20495;-73
2023/04/06 06:16:16;;;;;;;11.10;6.90;;;7.00;99.90;;;;;;5053561;28;20167;-72
2023/04/06 06:18:42;;;;;;;12.27;7.77;;;7.40;99.90;;;;;;5053698;28;20533;-73
2023/04/06 06:21:07;;;;;;;13.40;7.63;;;8.00;99.90;;;;;;5054074;28;20394;-73
2023/04/06 06:23:33;;;;;;;10.03;6.73;;;8.60;99.90;;;;;;5053804;28;20198;-73
2023/04/06 06:25:59;;;;;;;8.70;7.70;;;9.30;99.90;;;;;;5052566;28;20698;-73
2023/04/06 06:28:25;;;;;;;11.37;7.47;;;9.70;99.90;;;;;;5051965;28;20203;-73
2023/04/06 06:30:50;;;;;;;14.20;7.43;;;10.30;99.20;;;;;;5053920;28;20412;-73
2023/04/06 06:33:16;;;;;;;10.63;7.17;;;10.80;94.90;;;;;;5053150;28;20541;-73
2023/04/06 06:35:42;;;;;;;9.43;6.60;;;11.60;91.20;;;;;;5054267;28;20170;-73
2023/04/06 06:38:07;;;;;;;9.67;6.90;;;12.70;85.00;;;;;;5053895;28;20894;-73
2023/04/06 06:40:33;;;;;;;11.47;7.60;;;13.40;75.60;;;;;;5053967;28;20688;-73
2023/04/06 06:42:59;;;;;;;12.67;6.73;;;13.40;65.90;;;;;;5052935;28;20171;-73
2023/04/06 06:45:25;;;;;;;10.03;7.07;;;13.50;64.30;;;;;;5053303;28;20167;-74
2023/04/06 06:47:51;;;;;;;8.27;7.10;;;14.00;61.00;;;;;;5053677;28;20546;-73
2023/04/06 06:50:16;;;;;;;8.20;7.20;;;14.20;58.70;;;;;;5053708;28;20812;-73
2023/04/06 06:52:42;;;;;;;15.13;8.23;;;14.70;58.90;;;;;;5052296;28;20676;-73
2023/04/06 06:55:09;;;;;;;8.30;7.00;;;15.30;56.90;;;;;;5052507;28;20186;-72
2023/04/06 06:57:35;;;;;;;9.83;7.30;;;16.20;54.60;;;;;;5053213;28;20765;-74
2023/04/06 07:00:00;;;;;;;9.80;6.80;;;17.10;51.50;;;;;;5054003;28;20413;-74
2023/04/06 07:02:26;;;;;;;9.07;7.67;;;18.30;50.60;;;;;;5053262;28;20206;-75
2023/04/06 07:04:52;;;;;;;10.87;7.60;;;18.90;46.10;;;;;;5052383;28;20195;-73
2023/04/06 07:07:17;;;;;;;10.70;7.03;;;19.50;44.00;;;;;;5052983;28;20175;-74
2023/04/06 07:09:43;;;;;;;7.80;7.00;;;19.60;41.80;;;;;;5053212;28;20521;-74
2023/04/06 07:12:08;;;;;;;8.97;6.97;;;19.60;41.30;;;;;;5053980;28;20194;-73
2023/04/06 07:14:34;;;;;;;7.90;6.80;;;19.20;41.00;;;;;;5053391;28;20727;-73
2023/04/06 07:17:00;;;;;;;12.53;7.97;;;18.30;39.80;;;;;;5052209;28;20163;-73
2023/04/06 07:19:25;;;;;;;11.00;8.23;;;17.10;41.10;;;;;;5053644;28;20199;-75
2023/04/06 07:21:51;;;;;;;10.13;8.03;;;16.60;41.90;;;;;;5053140;28;20647;-73
2023/04/06 07:24:16;;;;;;;6.93;6.23;;;15.60;43.20;;;;;;5052227;28;20244;-73
2023/04/06 07:26:42;;;;;;;9.90;6.80;;;15.10;44.90;;;;;;5053236;28;20167;-75
2023/04/06 07:29:08;;;;;;;8.53;7.60;;;14.60;46.00;;;;;;5053363;28;20254;-73
2023/04/06 07:31:35;;;;;;;11.17;7.20;;;14.50;47.00;;;;;;5052998;28;20849;-75
2023/04/06 07:34:01;;;;;;;8.63;7.00;;;14.40;48.10;;;;;;5053071;28;20194;-74
2023/04/06 07:36:26;;;;;;;12.67;7.07;;;14.30;48.80;;;;;;5053624;28;20408;-74
2023/04/06 07:38:52;;;;;;;12.60;7.70;;;14.20;48.90;;;;;;5052927;28;20594;-74
2023/04/06 07:41:17;;;;;;;9.13;7.20;;;14.20;48.90;;;;;;5053652;28;20178;-72
2023/04/06 07:43:43;;;;;;;10.90;7.50;;;13.90;49.20;;;;;;5053914;28;20575;-75
2023/04/06 07:46:09;;;;;;;11.00;7.00;;;14.10;50.60;;;;;;5051884;28;20181;-74
2023/04/06 07:48:34;;;;;;;17.20;8.23;;;14.50;50.90;;;;;;5052203;28;20174;-73
2023/04/06 07:51:06;;;;;;;9.13;7.37;;;15.20;49.80;;;;;;5052520;28;20199;-72
2023/04/06 07:53:32;;;;;;;8.60;6.60;;;16.00;49.20;;;;;;5051814;28;20764;-73
2023/04/06 07:55:58;;;;;;;12.17;6.63;;;16.80;48.40;;;;;;5053025;28;20402;-75
2023/04/06 07:58:24;;;;;;;15.90;7.47;;;17.40;46.90;;;;;;5051435;28;20174;-74
2023/04/06 08:00:50;;;;;;;12.03;7.33;;;17.60;46.10;;;;;;5052561;28;20409;-75
2023/04/06 08:03:16;;;;;;;9.50;7.57;;;17.70;44.90;;;;;;5053705;28;20265;-74
2023/04/06 08:05:42;;;;;;;10.53;8.47;;;17.50;45.70;;;;;;5053343;28;20216;-73
2023/04/06 08:08:08;;;;;;;10.77;7.27;;;17.60;44.20;;;;;;5051462;28;20405;-73
2023/04/06 08:10:34;;;;;;;10.73;7.70;;;17.60;44.30;;;;;;5051883;28;20162;-73
2023/04/06 08:13:00;;;;;;;10.90;8.27;;;18.00;44.00;;;;;;5053637;28;20563;-75
2023/04/06 08:15:26;;;;;;;10.07;8.07;;;18.50;43.10;;;;;;5051888;28;20400;-75
2023/04/06 08:17:51;;;;;;;9.27;7.90;;;19.40;42.70;;;;;;5051606;28;20910;-73
2023/04/06 08:20:17;;;;;;;10.60;8.53;;;19.20;40.20;;;;;;5053753;28;20257;-75
2023/04/06 08:22:43;;;;;;;10.07;7.73;;;19.30;41.00;;;;;;5052491;28;20170;-75
2023/04/06 08:25:09;;;;;;;17.17;7.87;;;19.30;40.50;;;;;;5052768;28;20429;-73
2023/04/06 08:27:34;;;;;;;12.30;7.70;;;19.40;41.10;;;;;;5051644;28;20171;-73
2023/04/06 08:30:01;;;;;;;8.87;7.57;;;20.20;41.20;;;;;;5051667;28;20163;-73
2023/04/06 08:32:26;;;;;;;8.40;7.23;;;21.00;40.00;;;;;;5053067;28;20187;-75
2023/04/06 08:34:55;;;;;;;14.60;8.80;;;21.40;39.30;;;;;;5053074;28;20440;-75
2023/04/06 08:37:21;;;;;;;9.50;7.93;;;22.10;39.90;;;;;;5051161;28;20171;-75
2023/04/06 08:39:47;;;;;;;8.63;7.50;;;21.90;38.20;;;;;;5052791;28;20413;-75
2023/04/06 08:42:21;;;;;;;12.10;8.13;;;21.90;38.20;;;;;;5051595;28;20421;-75
2023/04/06 08:44:50;;;;;;;8.63;7.73;;;21.80;38.40;;;;;;5052804;28;20185;-75
2023/04/06 08:47:16;;;;;;;11.57;8.67;;;22.40;37.80;;;;;;5052422;28;20910;-75
2023/04/06 08:49:43;;;;;;;10.53;8.27;;;22.50;37.90;;;;;;5057203;28;20407;-74
2023/04/06 08:52:10;;;;;;;11.37;7.87;;;22.20;36.10;;;;;;5057473;28;20186;-74
2023/04/06 08:54:37;;;;;;;8.37;7.40;;;22.20;37.30;;;;;;5056489;28;20506;-74
2023/04/06 08:57:02;;;;;;;9.47;8.10;;;22.10;36.60;;;;;;5057469;28;20397;-74
2023/04/06 08:59:28;;;;;;;11.07;8.23;;;22.00;36.60;;;;;;5057993;28;20401;-75
2023/04/06 09:01:55;;;;;;;12.73;7.10;;;21.60;36.00;;;;;;5057748;28;20238;-74
2023/04/06 09:04:21;;;;;;;16.07;7.30;;;21.20;36.80;;;;;;5057740;28;20183;-74
2023/04/06 09:06:47;;;;;;;9.80;7.63;;;21.30;37.40;;;;;;5057499;28;20408;-74
2023/04/06 09:09:12;;;;;;;9.93;8.70;;;21.30;37.80;;;;;;5057647;28;20250;-74
2023/04/06 09:11:50;;;;;;;10.50;8.63;;;21.80;38.50;;;;;;5057379;28;21055;-74
2023/04/06 09:14:16;;;;;;;11.43;8.10;;;21.60;37.00;;;;;;5057194;28;20199;-74
2023/04/06 09:16:45;;;;;;;11.13;8.20;;;21.30;37.80;;;;;;5056187;28;20543;-74
2023/04/06 09:19:11;;;;;;;16.67;8.40;;;20.80;37.40;;;;;;5055964;28;20593;-74
2023/04/06 09:21:39;;;;;;;9.57;7.40;;;20.60;37.90;;;;;;5056859;28;20429;-74
2023/04/06 09:24:07;;;;;;;10.70;8.23;;;20.50;39.30;;;;;;5057331;28;20922;-74
2023/04/06 09:26:43;;;;;;;12.77;8.30;;;20.80;39.10;;;;;;5056955;28;20401;-74
2023/04/06 09:29:09;;;;;;;11.20;7.57;;;20.70;38.30;;;;;;5056929;28;20492;-74
2023/04/06 09:31:35;;;;;;;14.83;7.90;;;20.90;39.20;;;;;;5057375;28;20508;-75
2023/04/06 09:34:01;;;;;;;13.83;7.53;;;21.00;39.00;;;;;;5057164;28;20736;-75
2023/04/06 09:36:38;;;;;;;15.07;9.40;;;21.00;39.30;;;;;;5057193;28;20246;-74
2023/04/06 09:39:04;;;;;;;11.07;8.03;;;20.90;38.60;;;;;;5055629;28;20851;-74
2023/04/06 09:41:32;;;;;;;16.47;8.67;;;21.10;39.20;;;;;;5057593;28;20429;-75
2023/04/06 09:44:09;;;;;;;15.40;8.33;;;21.70;39.00;;;;;;5056190;28;20441;-74
2023/04/06 09:46:40;;;;;;;12.80;8.30;;;22.50;38.30;;;;;;5056472;28;20401;-74
2023/04/06 09:49:07;;;;;;;11.80;8.70;;;23.20;37.30;;;;;;5056063;28;20406;-74
2023/04/06 09:51:49;;;;;;;13.13;9.90;;;23.90;37.70;;;;;;5053044;28;20410;-73
2023/04/06 09:54:22;;;;;;;12.10;9.50;;;24.80;37.70;;;;;;5053968;28;20530;-73
2023/04/06 09:57:01;;;;;;;15.43;8.83;;;25.50;36.20;;;;;;5053998;28;20481;-73
2023/04/06 09:59:49;;;;;;;12.93;7.00;;;25.80;34.30;;;;;;5052371;28;20424;-73
2023/04/06 10:02:56;;;;;;;11.27;8.90;;;26.30;34.10;;;;;;5053994;28;20410;-73
2023/04/06 10:05:40;;;;;;;14.10;8.60;;;26.70;32.30;;;;;;5053866;28;20408;-73
2023/04/06 10:08:10;;;;;;;9.40;7.30;;;26.30;31.70;;;;;;5052307;28;20448;-73
2023/04/06 10:10:37;;;;;;;15.47;8.00;;;25.90;32.00;;;;;;5053720;28;20397;-73
2023/04/06 10:13:04;;;;;;;14.20;8.57;;;25.30;31.60;;;;;;5053762;28;20461;-68
2023/04/06 10:15:30;;;;;;;10.17;6.93;;;24.90;32.90;;;;;;5053649;28;20492;-67
2023/04/06 10:18:00;;;;;;;14.33;9.30;;;24.40;33.40;;;;;;5053334;28;20401;-70
2023/04/06 10:20:38;;;;;;;11.00;9.60;;;24.20;32.80;;;;;;5052466;28;20489;-72
2023/04/06 10:23:35;;;;;;;12.57;8.57;;;23.70;33.10;;;;;;5053685;28;20401;-72
2023/04/06 10:26:02;;;;;;;11.90;7.97;;;23.40;34.10;;;;;;5053514;28;20402;-72
2023/04/06 10:28:32;;;;;;;14.50;8.60;;;23.20;33.90;;;;;;5053053;28;20413;-72
2023/04/06 10:31:05;;;;;;;10.20;7.20;;;22.90;34.40;;;;;;5052168;28;20934;-72
2023/04/06 10:33:31;;;;;;;16.07;8.07;;;22.40;34.40;;;;;;5051965;28;20544;-71
2023/04/06 10:35:57;;;;;;;13.87;9.00;;;22.10;35.30;;;;;;5053179;28;20970;-71
2023/04/06 10:38:43;;;;;;;11.10;8.77;;;22.10;35.80;;;;;;5052987;28;20178;-72
2023/04/06 10:41:12;;;;;;;11.87;9.20;;;22.20;35.80;;;;;;5052798;28;20432;-72
2023/04/06 10:43:40;;;;;;;12.00;8.37;;;22.40;35.90;;;;;;5053080;28;20417;-71
2023/04/06 10:46:07;;;;;;;9.53;6.50;;;22.70;36.40;;;;;;5053134;28;20406;-71
2023/04/06 10:48:38;;;;;;;11.70;7.40;;;22.90;35.50;;;;;;5051475;28;20476;-71
2023/04/06 10:51:11;;;;;;;13.50;8.90;;;23.00;35.20;;;;;;5052850;28;20409;-71
2023/04/06 10:53:37;;;;;;;11.00;7.80;;;22.50;34.90;;;;;;5051485;28;20499;-71
2023/04/06 10:56:03;;;;;;;12.40;7.70;;;21.80;33.50;;;;;;5052776;28;20434;-71
2023/04/06 10:58:30;;;;;;;12.33;8.03;;;21.40;33.20;;;;;;5052450;28;20191;-71
2023/04/06 11:00:56;;;;;;;13.57;7.63;;;20.70;33.80;;;;;;5052624;28;20397;-71
2023/04/06 11:03:22;;;;;;;14.00;8.07;;;20.10;34.10;;;;;;5052670;28;20759;-72
2023/04/06 11:05:49;;;;;;;12.13;7.83;;;19.80;34.70;;;;;;5052771;28;20480;-71
2023/04/06 11:08:25;;;;;;;11.10;7.03;;;19.60;35.40;;;;;;5052627;28;20168;-72
2023/04/06 11:10:50;;;;;;;10.93;7.40;;;19.50;36.60;;;;;;5052282;28;20413;-72
2023/04/06 11:13:17;;;;;;;15.07;8.40;;;19.90;37.00;;;;;;5051094;28;20469;-72
2023/04/06 11:15:42;;;;;;;10.70;7.93;;;20.30;36.00;;;;;;5052626;28;20244;-72
2023/04/06 11:18:08;;;;;;;11.10;7.23;;;20.40;35.30;;;;;;5052238;28;20413;-71
2023/04/06 11:20:34;;;;;;;14.30;8.00;;;20.60;35.50;;;;;;5052585;28;20165;-71
2023/04/06 11:22:59;;;;;;;14.13;7.73;;;20.70;35.70;;;;;;5052504;28;20166;-71
2023/04/06 11:25:31;;;;;;;11.97;7.57;;;20.40;35.20;;;;;;5052555;28;20167;-71
2023/04/06 11:27:56;;;;;;;10.83;7.13;;;20.20;36.00;;;;;;5052067;28;20163;-72
2023/04/06 11:30:22;;;;;;;12.57;7.70;;;20.50;37.60;;;;;;5052378;28;20416;-71
2023/04/06 11:32:48;;;;;;;10.80;7.83;;;20.80;37.30;;;;;;5050842;28;20206;-72
2023/04/06 11:35:21;;;;;;;12.17;8.10;;;21.00;36.10;;;;;;5052250;28;20221;-72
2023/04/06 11:37:49;;;;;;;8.30;6.73;;;21.20;35.10;;;;;;5051857;28;20532;-72
2023/04/06 11:40:15;;;;;;;9.20;6.77;;;21.30;35.10;;;;;;5050955;28;20937;-72
2023/04/06 11:42:41;;;;;;;9.20;6.50;;;21.90;35.60;;;;;;5051813;28;20440;-71
2023/04/06 11:45:08;;;;;;;10.17;6.73;;;22.90;36.80;;;;;;5052053;28;20552;-72
2023/04/06 11:47:36;;;;;;;8.80;6.33;;;24.10;35.30;;;;;;5051638;28;20182;-72
2023/04/06 11:50:09;;;;;;;10.10;6.43;;;24.90;35.50;;;;;;5051127;28;20492;-72
2023/04/06 11:52:35;;;;;;;12.00;6.30;;;25.20;33.00;;;;;;5051996;28;20530;-72
2023/04/06 11:55:11;;;;;;;12.00;7.03;;;24.90;32.80;;;;;;5051863;28;21130;-72
2023/04/06 11:57:36;;;;;;;12.90;7.10;;;25.10;33.60;;;;;;5051625;28;20293;-72
2023/04/06 12:00:02;;;;;;;16.03;8.40;;;25.70;32.80;;;;;;5051895;28;21127;-72
2023/04/06 12:02:28;;;;;;;14.77;8.50;;;25.80;31.20;;;;;;5051557;28;20163;-72
2023/04/06 12:04:54;;;;;;;11.83;7.63;;;25.50;30.80;;;;;;5051788;28;20417;-72
2023/04/06 12:07:19;;;;;;;10.30;7.27;;;25.80;32.60;;;;;;5051532;28;20602;-71
2023/04/06 12:09:45;;;;;;;10.27;7.40;;;25.80;32.50;;;;;;5051720;28;20171;-71
2023/04/06 12:12:10;;;;;;;10.27;6.87;;;25.40;31.30;;;;;;5051668;28;20205;-71
2023/04/06 12:14:36;;;;;;;9.33;6.93;;;25.00;31.30;;;;;;5050401;28;20206;-71
2023/04/06 12:17:01;;;;;;;11.27;6.87;;;23.90;31.00;;;;;;5051407;28;20232;-72
2023/04/06 12:19:27;;;;;;;9.43;6.70;;;23.30;31.80;;;;;;5051752;28;20174;-71
2023/04/06 12:21:54;;;;;;;8.97;5.90;;;22.70;32.40;;;;;;5051773;28;20764;-72
2023/04/06 12:24:19;;;;;;;11.87;6.00;;;22.50;33.80;;;;;;5054353;28;20659;-72
2023/04/06 12:26:45;;;;;;;8.50;5.90;;;22.60;34.60;;;;;;5055695;28;20416;-72
2023/04/06 12:29:13;;;;;;;13.67;6.17;;;22.40;34.00;;;;;;5055497;28;20163;-71
2023/04/06 12:31:40;;;;;;;9.20;6.23;;;22.40;34.50;;;;;;5055582;28;20405;-72
2023/04/06 12:34:06;;;;;;;8.50;6.50;;;22.00;34.20;;;;;;5055537;28;20878;-72
2023/04/06 12:36:32;;;;;;;8.83;6.20;;;21.60;34.70;;;;;;5055529;28;20397;-71
2023/04/06 12:38:58;;;;;;;7.10;5.30;;;21.40;35.00;;;;;;5055230;28;20450;-71
2023/04/06 12:41:24;;;;;;;5.70;4.67;;;21.10;35.20;;;;;;5055464;28;20401;-71
2023/04/06 12:43:50;;;;;;;7.47;5.27;;;20.70;35.10;;;;;;5055339;28;20529;-71